createdAt,value
2023-04-18T00:01:13.404Z,95678.72
2023-04-18T00:04:15.465Z,95681.00
2023-04-18T00:07:21.200Z,95679.09
2023-04-18T00:10:23.572Z,95679.88
2023-04-18T00:13:25.394Z,95690.34
2023-04-18T00:16:31.856Z,95682.63
2023-04-18T00:19:33.929Z,95687.16
2023-04-18T00:22:37.709Z,95681.06
2023-04-18T00:25:41.464Z,95686.03
2023-04-18T00:28:43.244Z,95685.63
2023-04-18T00:31:45.256Z,95683.69
2023-04-18T00:34:47.307Z,95684.06
2023-04-18T00:37:50.677Z,95685.63
2023-04-18T00:40:52.439Z,95683.34
2023-04-18T00:43:54.625Z,95680.66
2023-04-18T00:46:56.332Z,95683.75
2023-04-18T00:49:59.093Z,95689.13
2023-04-18T00:53:03.501Z,95682.13
2023-04-18T00:56:06.444Z,95684.88
2023-04-18T00:59:09.974Z,95684.88
2023-04-18T01:02:12.811Z,95684.13
2023-04-18T01:05:14.718Z,95682.13
2023-04-18T01:08:19.503Z,95682.66
2023-04-18T01:11:21.581Z,95686.91
2023-04-18T01:14:23.367Z,95687.34
2023-04-18T01:17:25.227Z,95686.63
2023-04-18T01:20:29.481Z,95684.44
2023-04-18T01:23:32.696Z,95681.19
2023-04-18T01:26:35.850Z,95673.88
2023-04-18T01:29:38.962Z,95676.16
2023-04-18T01:32:41.168Z,95675.72
2023-04-18T01:35:42.921Z,95678.03
2023-04-18T01:38:44.806Z,95668.72
2023-04-18T01:41:48.183Z,95673.28
2023-04-18T01:44:49.974Z,95671.56
2023-04-18T01:47:52.119Z,95674.59
2023-04-18T01:50:53.889Z,95669.53
2023-04-18T01:53:55.654Z,95663.53
2023-04-18T01:56:58.767Z,95672.75
2023-04-18T02:00:00.936Z,95666.22
2023-04-18T02:03:02.892Z,95675.06
2023-04-18T02:06:05.704Z,95667.06
2023-04-18T02:09:08.729Z,95666.72
2023-04-18T02:12:12.632Z,95661.25
2023-04-18T02:15:15.227Z,95661.97
2023-04-18T02:18:17.726Z,95664.72
2023-04-18T02:21:19.887Z,95669.56
2023-04-18T02:24:21.644Z,95668.00
2023-04-18T02:27:24.914Z,95664.25
2023-04-18T02:30:26.767Z,95667.63
2023-04-18T02:33:28.624Z,95662.63
2023-04-18T02:36:30.486Z,95666.50
2023-04-18T02:39:33.599Z,95668.84
2023-04-18T02:42:37.037Z,95670.81
2023-04-18T02:45:39.073Z,95677.56
2023-04-18T02:48:40.905Z,95667.50
2023-04-18T02:51:42.948Z,95668.38
2023-04-18T02:54:45.196Z,95671.25
2023-04-18T02:57:48.498Z,95678.84
2023-04-18T03:00:53.643Z,95675.38
2023-04-18T03:03:55.755Z,95667.66
2023-04-18T03:06:58.618Z,95664.63
2023-04-18T03:10:00.672Z,95661.53
2023-04-18T03:13:05.455Z,95670.22
2023-04-18T03:16:10.548Z,95673.13
2023-04-18T03:19:12.656Z,95668.72
2023-04-18T03:22:16.354Z,95672.84
2023-04-18T03:25:18.155Z,95662.03
2023-04-18T03:28:21.369Z,95672.47
2023-04-18T03:31:23.158Z,95671.63
2023-04-18T03:34:25.202Z,95672.28
2023-04-18T03:37:27.237Z,95666.91
2023-04-18T03:40:29.470Z,95662.72
2023-04-18T03:43:33.322Z,95665.78
2023-04-18T03:46:35.570Z,95664.50
2023-04-18T03:49:37.372Z,95669.44
2023-04-18T03:52:40.215Z,95670.72
2023-04-18T03:55:42.435Z,95676.28
2023-04-18T03:58:45.926Z,95672.41
2023-04-18T04:01:47.891Z,95676.66
2023-04-18T04:04:49.749Z,95682.03
2023-04-18T04:07:51.839Z,95687.81
2023-04-18T04:10:53.863Z,95678.56
2023-04-18T04:14:00.780Z,95690.50
2023-04-18T04:17:02.717Z,95679.34
2023-04-18T04:20:05.006Z,95685.19
2023-04-18T04:23:06.794Z,95689.16
2023-04-18T04:26:09.630Z,95692.50
2023-04-18T04:29:12.937Z,95694.81
2023-04-18T04:32:14.739Z,95688.75
2023-04-18T04:35:16.798Z,95696.88
2023-04-18T04:38:18.573Z,95689.31
2023-04-18T04:41:21.660Z,95690.50
2023-04-18T04:44:24.995Z,95694.13
2023-04-18T04:47:26.822Z,95693.41
2023-04-18T04:50:28.970Z,95694.81
2023-04-18T04:53:30.932Z,95700.63
2023-04-18T04:56:33.290Z,95692.22
2023-04-18T04:59:36.910Z,95694.59
2023-04-18T05:02:38.983Z,95698.34
2023-04-18T05:05:41.106Z,95700.75
2023-04-18T05:08:43.282Z,95710.25
2023-04-18T05:11:44.999Z,95701.75
2023-04-18T05:14:48.469Z,95702.38
2023-04-18T05:17:51.044Z,95707.63
2023-04-18T05:20:53.220Z,95705.72
2023-04-18T05:23:55.076Z,95716.25
2023-04-18T05:26:57.631Z,95720.50
2023-04-18T05:30:02.696Z,95718.22
2023-04-18T05:33:05.594Z,95716.69
2023-04-18T05:36:07.802Z,95721.00
2023-04-18T05:39:09.564Z,95715.53
2023-04-18T05:42:12.866Z,95708.25
2023-04-18T05:45:17.232Z,95718.22
2023-04-18T05:48:20.625Z,95706.06
2023-04-18T05:51:22.729Z,95712.56
2023-04-18T05:54:24.569Z,95712.63
2023-04-18T05:57:26.353Z,95711.56
2023-04-18T06:00:30.465Z,95719.56
2023-04-18T06:03:32.484Z,95723.47
2023-04-18T06:06:35.242Z,95717.38
2023-04-18T06:09:37.488Z,95724.16
2023-04-18T06:12:39.341Z,95721.13
2023-04-18T06:15:43.968Z,95721.41
2023-04-18T06:18:46.004Z,95729.53
2023-04-18T06:21:48.880Z,95728.00
2023-04-18T06:24:51.265Z,95723.75
2023-04-18T06:27:53.514Z,95732.59
2023-04-18T06:30:56.689Z,95733.50
2023-04-18T06:33:58.458Z,95730.03
2023-04-18T06:37:00.549Z,95722.47
2023-04-18T06:40:02.300Z,95723.75
2023-04-18T06:43:04.270Z,95731.63
2023-04-18T06:46:08.247Z,95728.56
2023-04-18T06:49:10.297Z,95735.19
2023-04-18T06:52:12.382Z,95735.63
2023-04-18T06:55:14.490Z,95738.63
2023-04-18T06:58:16.651Z,95740.63
2023-04-18T07:01:19.979Z,95731.91
2023-04-18T07:04:22.262Z,95736.44
2023-04-18T07:07:24.412Z,95738.13
2023-04-18T07:10:26.266Z,95733.47
2023-04-18T07:13:28.124Z,95736.59
2023-04-18T07:16:31.424Z,95733.47
2023-04-18T07:19:33.278Z,95734.84
2023-04-18T07:22:37.851Z,95737.81
2023-04-18T07:25:40.552Z,95734.69
2023-04-18T07:28:42.376Z,95738.09
2023-04-18T07:31:45.627Z,95739.25
2023-04-18T07:34:47.347Z,95743.84
2023-04-18T07:37:51.310Z,95747.59
2023-04-18T07:40:57.155Z,95743.66
2023-04-18T07:43:59.172Z,95745.56
2023-04-18T07:47:02.978Z,95746.69
2023-04-18T07:50:05.473Z,95752.59
2023-04-18T07:53:08.320Z,95745.66
2023-04-18T07:56:11.190Z,95751.78
2023-04-18T07:59:13.557Z,95751.34
2023-04-18T08:02:16.989Z,95752.50
2023-04-18T08:05:20.425Z,95750.16
2023-04-18T08:08:22.314Z,95757.44
2023-04-18T08:11:24.158Z,95761.34
2023-04-18T08:14:26.380Z,95760.69
2023-04-18T08:17:29.585Z,95760.34
2023-04-18T08:20:31.427Z,95763.16
2023-04-18T08:23:33.479Z,95766.53
2023-04-18T08:26:35.507Z,95758.91
2023-04-18T08:29:37.254Z,95768.53
2023-04-18T08:32:42.299Z,95763.91
2023-04-18T08:35:44.345Z,95769.03
2023-04-18T08:38:46.570Z,95765.47
2023-04-18T08:41:57.175Z,95775.72
2023-04-18T08:44:59.587Z,95777.41
2023-04-18T08:48:02.929Z,95783.38
2023-04-18T08:51:05.529Z,95783.78
2023-04-18T08:54:09.174Z,95786.78
2023-04-18T08:57:12.763Z,95796.53
2023-04-18T09:00:17.157Z,95799.44
